Time;durP1;ratioP1;P1;durP2;ratioP2;P2;SDS_P1;SDS_P2;PMS_P1;PMS_P2;Temp;Humidity;BMP_temperature;BMP_pressure;BME280_temperature;BME280_humidity;BME280_pressure;Samples;Min_cycle;Max_cycle;Signal;HPM_P1;HPM_P2
2022/06/19 00:00:39;;;;;;;;;15.75;15.00;;;;;;;;5057058;28;45273;-70
2022/06/19 00:03:07;;;;;;;;;14.75;14.50;;;;;;;;5056396;28;45322;-71
2022/06/19 00:05:32;;;;;;;;;9.75;9.75;;;;;;;;5040365;28;45335;-71
2022/06/19 00:07:57;;;;;;;;;14.75;13.75;;;;;;;;5051529;28;45339;-71
2022/06/19 00:10:23;;;;;;;;;11.75;11.00;;;;;;;;5058588;28;45221;-71
2022/06/19 00:12:48;;;;;;;;;12.25;10.50;;;;;;;;5045594;28;46200;-70
2022/06/19 00:15:15;;;;;;;;;14.25;10.75;;;;;;;;5056993;28;45552;-71
2022/06/19 00:17:40;;;;;;;;;11.00;10.00;;;;;;;;5034092;28;45352;-70
2022/06/19 00:20:06;;;;;;;;;10.67;10.67;;;;;;;;5060029;28;45344;-70
2022/06/19 00:22:31;;;;;;;;;10.00;10.00;;;;;;;;5051592;28;46392;-70
2022/06/19 00:24:56;;;;;;;;;13.00;9.33;;;;;;;;5053379;28;45209;-70
2022/06/19 00:27:23;;;;;;;;;12.25;10.00;;;;;;;;5050892;28;45855;-70
2022/06/19 00:29:48;;;;;;;;;10.67;8.67;;;;;;;;5033011;28;46986;-71
2022/06/19 00:32:13;;;;;;;;;10.33;9.67;;;;;;;;5049790;28;45384;-71
2022/06/19 00:34:39;;;;;;;;;9.67;9.00;;;;;;;;5049850;28;45542;-71
2022/06/19 00:37:04;;;;;;;;;10.33;9.00;;;;;;;;5030487;28;45428;-72
2022/06/19 00:39:32;;;;;;;;;11.33;9.67;;;;;;;;5046738;28;45298;-71
2022/06/19 00:41:57;;;;;;;;;9.67;8.33;;;;;;;;5048472;28;45395;-70
2022/06/19 00:44:22;;;;;;;;;11.67;10.00;;;;;;;;5054980;28;45309;-70
2022/06/19 00:47:14;;;;;;;;;9.00;8.00;;;;;;;;5051998;28;45366;-70
2022/06/19 00:49:41;;;;;;;;;8.67;7.67;;;;;;;;5048193;28;45343;-70
2022/06/19 00:52:09;;;;;;;;;4.33;3.67;;;;;;;;5052874;28;45371;-70
2022/06/19 00:54:53;;;;;;;;;6.33;6.33;;;;;;;;5056674;28;45373;-70
2022/06/19 00:57:19;;;;;;;;;11.67;8.00;;;;;;;;5035064;28;45545;-70
2022/06/19 00:59:47;;;;;;;;;10.67;8.00;;;;;;;;5051017;28;45501;-71
2022/06/19 01:02:14;;;;;;;;;8.67;7.00;;;;;;;;5036005;28;46409;-70
2022/06/19 01:04:44;;;;;;;;;11.00;9.00;;;;;;;;5043763;28;45236;-71
2022/06/19 01:07:09;;;;;;;;;13.67;12.00;;;;;;;;5047946;28;45327;-70
2022/06/19 01:09:35;;;;;;;;;14.67;10.33;;;;;;;;5052542;28;45515;-70
2022/06/19 01:12:02;;;;;;;;;14.67;13.00;;;;;;;;5045256;28;46235;-70
2022/06/19 01:14:27;;;;;;;;;15.00;11.00;;;;;;;;5040071;28;45285;-69
2022/06/19 01:16:52;;;;;;;;;14.67;13.00;;;;;;;;5033560;28;45290;-69
2022/06/19 01:19:26;;;;;;;;;18.33;13.00;;;;;;;;5046679;28;45273;-70
2022/06/19 01:22:10;;;;;;;;;16.67;12.67;;;;;;;;5050919;28;45341;-70
2022/06/19 01:24:36;;;;;;;;;11.67;11.00;;;;;;;;5055872;28;45325;-70
2022/06/19 01:27:02;;;;;;;;;23.67;15.33;;;;;;;;5045905;28;45503;-69
2022/06/19 01:29:30;;;;;;;;;16.00;14.33;;;;;;;;5052439;28;45407;-70
2022/06/19 01:31:56;;;;;;;;;19.33;14.67;;;;;;;;5053975;28;45297;-70
2022/06/19 01:34:27;;;;;;;;;13.67;12.67;;;;;;;;5040550;28;45296;-70
2022/06/19 01:36:54;;;;;;;;;20.00;13.33;;;;;;;;5050856;28;45376;-70
2022/06/19 01:39:19;;;;;;;;;11.33;8.00;;;;;;;;5034079;28;45981;-70
2022/06/19 01:41:45;;;;;;;;;14.00;12.00;;;;;;;;5030613;28;47137;-70
2022/06/19 01:44:10;;;;;;;;;20.00;15.67;;;;;;;;5036628;28;45425;-70
2022/06/19 01:46:35;;;;;;;;;16.33;13.67;;;;;;;;5049402;28;45785;-70
2022/06/19 01:49:01;;;;;;;;;14.00;12.00;;;;;;;;5054251;28;45276;-70
2022/06/19 01:51:26;;;;;;;;;16.00;14.33;;;;;;;;5052838;28;46469;-69
2022/06/19 01:53:55;;;;;;;;;18.33;14.33;;;;;;;;5056582;28;45456;-70
2022/06/19 01:56:20;;;;;;;;;18.33;14.33;;;;;;;;5046348;28;45382;-69
2022/06/19 01:58:52;;;;;;;;;17.33;15.33;;;;;;;;5051299;28;45230;-69
2022/06/19 02:01:17;;;;;;;;;13.00;12.67;;;;;;;;5032916;28;46459;-70
2022/06/19 02:03:44;;;;;;;;;13.00;13.00;;;;;;;;5036045;28;45372;-70
2022/06/19 02:06:10;;;;;;;;;19.67;14.67;;;;;;;;5035941;28;45432;-70
2022/06/19 02:08:35;;;;;;;;;16.00;14.67;;;;;;;;5034280;28;45695;-69
2022/06/19 02:11:03;;;;;;;;;14.00;14.00;;;;;;;;5045160;28;45471;-69
2022/06/19 02:13:31;;;;;;;;;14.33;12.67;;;;;;;;5050538;28;45219;-70
2022/06/19 02:15:56;;;;;;;;;19.00;15.33;;;;;;;;5053799;28;45221;-70
2022/06/19 02:18:23;;;;;;;;;16.67;13.00;;;;;;;;5039707;28;45660;-70
2022/06/19 02:20:52;;;;;;;;;15.33;13.67;;;;;;;;5036454;28;45406;-70
2022/06/19 02:23:25;;;;;;;;;14.67;12.67;;;;;;;;5049030;28;45327;-70
2022/06/19 02:25:50;;;;;;;;;15.33;12.00;;;;;;;;5059036;28;45469;-69
2022/06/19 02:28:16;;;;;;;;;15.00;13.67;;;;;;;;5058036;28;45434;-69
2022/06/19 02:30:41;;;;;;;;;14.67;13.00;;;;;;;;5035199;28;48199;-69
2022/06/19 02:33:10;;;;;;;;;17.33;13.33;;;;;;;;5059179;28;45407;-69
2022/06/19 02:35:35;;;;;;;;;13.67;13.67;;;;;;;;5058537;28;45178;-69
2022/06/19 02:38:05;;;;;;;;;12.00;10.00;;;;;;;;5052184;28;45408;-69
2022/06/19 02:40:33;;;;;;;;;12.00;12.00;;;;;;;;5026462;28;46970;-69
2022/06/19 02:42:58;;;;;;;;;13.67;12.67;;;;;;;;5053275;28;45488;-70
2022/06/19 02:45:26;;;;;;;;;15.67;10.00;;;;;;;;5055354;28;45421;-70
2022/06/19 02:47:52;;;;;;;;;13.00;10.33;;;;;;;;5039005;28;45729;-70
2022/06/19 02:50:19;;;;;;;;;12.00;12.00;;;;;;;;5060223;28;46238;-70
2022/06/19 02:52:45;;;;;;;;;11.00;10.00;;;;;;;;5054382;28;46396;-69
2022/06/19 02:55:10;;;;;;;;;14.67;11.33;;;;;;;;5053707;28;45296;-69
2022/06/19 02:57:36;;;;;;;;;13.33;13.00;;;;;;;;5040857;28;46067;-70
2022/06/19 03:00:01;;;;;;;;;6.00;6.00;;;;;;;;5061012;28;45581;-70
2022/06/19 03:02:28;;;;;;;;;10.00;9.00;;;;;;;;5052966;28;45348;-69
2022/06/19 03:04:56;;;;;;;;;8.00;8.00;;;;;;;;5054026;28;45432;-69
2022/06/19 03:07:21;;;;;;;;;16.67;11.00;;;;;;;;5048579;28;45263;-69
2022/06/19 03:09:46;;;;;;;;;10.00;10.00;;;;;;;;5031587;28;46924;-70
2022/06/19 03:12:11;;;;;;;;;14.00;11.00;;;;;;;;5031453;28;45268;-69
2022/06/19 03:14:37;;;;;;;;;11.67;11.67;;;;;;;;5058621;28;45525;-70
2022/06/19 03:17:02;;;;;;;;;15.00;12.00;;;;;;;;5036625;28;46626;-70
2022/06/19 03:19:27;;;;;;;;;12.67;12.00;;;;;;;;5041542;28;46860;-70
2022/06/19 03:21:52;;;;;;;;;18.00;12.00;;;;;;;;5053667;28;45339;-70
2022/06/19 03:24:18;;;;;;;;;13.00;12.00;;;;;;;;5043313;28;45327;-70
2022/06/19 03:26:43;;;;;;;;;13.67;12.00;;;;;;;;5052697;28;45486;-70
2022/06/19 03:29:08;;;;;;;;;11.33;11.33;;;;;;;;5035189;28;46526;-69
2022/06/19 03:31:33;;;;;;;;;14.33;10.00;;;;;;;;5050656;28;45412;-70
2022/06/19 03:33:59;;;;;;;;;11.67;9.67;;;;;;;;5053470;28;45442;-70
2022/06/19 03:36:24;;;;;;;;;13.33;13.00;;;;;;;;5032341;28;45879;-70
2022/06/19 03:38:49;;;;;;;;;20.67;14.33;;;;;;;;5054057;28;45257;-70
2022/06/19 03:41:15;;;;;;;;;18.67;13.67;;;;;;;;5031298;28;45321;-70
2022/06/19 03:43:40;;;;;;;;;17.67;17.67;;;;;;;;5041324;28;45458;-69
2022/06/19 03:46:12;;;;;;;;;17.67;13.33;;;;;;;;5037043;28;47146;-69
2022/06/19 03:48:45;;;;;;;;;15.00;13.67;;;;;;;;5055706;28;45301;-69
2022/06/19 03:51:11;;;;;;;;;17.33;14.67;;;;;;;;5050319;28;45415;-69
2022/06/19 03:53:36;;;;;;;;;13.67;13.67;;;;;;;;5058277;28;45450;-69
2022/06/19 03:56:03;;;;;;;;;18.33;16.00;;;;;;;;5050111;28;45552;-69
2022/06/19 03:58:45;;;;;;;;;19.67;16.67;;;;;;;;5058143;28;46316;-70
2022/06/19 04:01:10;;;;;;;;;16.00;16.00;;;;;;;;5052557;28;45451;-69
2022/06/19 04:03:36;;;;;;;;;17.33;13.00;;;;;;;;5052830;28;45205;-70
2022/06/19 04:06:01;;;;;;;;;16.67;12.67;;;;;;;;5048546;28;45341;-70
2022/06/19 04:08:26;;;;;;;;;19.00;17.33;;;;;;;;5041627;28;46998;-70
2022/06/19 04:10:52;;;;;;;;;17.00;13.00;;;;;;;;5032672;28;45412;-69
2022/06/19 04:13:17;;;;;;;;;14.33;12.67;;;;;;;;5043445;28;45355;-69
2022/06/19 04:15:42;;;;;;;;;19.00;16.67;;;;;;;;5048525;28;45292;-68
2022/06/19 04:18:07;;;;;;;;;13.67;10.00;;;;;;;;5050221;28;45676;-68
2022/06/19 04:20:32;;;;;;;;;16.33;14.33;;;;;;;;5057567;28;45323;-69
2022/06/19 04:22:58;;;;;;;;;14.33;12.33;;;;;;;;5055975;28;45418;-69
2022/06/19 04:25:24;;;;;;;;;20.50;17.50;;;;;;;;5058012;28;45483;-69
2022/06/19 04:27:49;;;;;;;;;16.00;15.33;;;;;;;;5048204;28;45391;-69
2022/06/19 04:30:14;;;;;;;;;11.33;10.00;;;;;;;;5053808;28;45452;-69
2022/06/19 04:32:39;;;;;;;;;15.67;14.67;;;;;;;;5043193;28;45356;-69
2022/06/19 04:35:05;;;;;;;;;19.67;17.33;;;;;;;;5037292;28;46852;-69
2022/06/19 04:37:30;;;;;;;;;18.00;17.00;;;;;;;;5044481;28;45413;-69
2022/06/19 04:39:55;;;;;;;;;15.33;14.00;;;;;;;;5051005;28;45350;-69
2022/06/19 04:42:20;;;;;;;;;15.33;14.33;;;;;;;;5030677;28;45581;-69
2022/06/19 04:44:46;;;;;;;;;18.00;12.67;;;;;;;;5049388;28;45287;-68
2022/06/19 04:47:11;;;;;;;;;16.33;12.33;;;;;;;;5027385;28;48037;-69
2022/06/19 04:49:36;;;;;;;;;15.33;12.67;;;;;;;;5046884;28;45340;-69
2022/06/19 04:52:01;;;;;;;;;14.33;12.33;;;;;;;;5051721;28;45438;-68
2022/06/19 04:54:27;;;;;;;;;13.33;11.67;;;;;;;;5045286;28;45226;-68
2022/06/19 04:56:52;;;;;;;;;10.67;7.00;;;;;;;;5050777;28;45325;-68
2022/06/19 04:59:17;;;;;;;;;13.00;9.33;;;;;;;;5057195;28;45348;-69
2022/06/19 05:01:42;;;;;;;;;14.00;10.00;;;;;;;;5057634;28;45300;-68
2022/06/19 05:04:09;;;;;;;;;12.33;12.33;;;;;;;;5056867;28;45416;-68
2022/06/19 05:06:34;;;;;;;;;14.67;10.00;;;;;;;;5044086;28;45584;-69
2022/06/19 05:09:00;;;;;;;;;13.67;11.33;;;;;;;;5055026;28;45272;-68
2022/06/19 05:11:26;;;;;;;;;9.67;7.00;;;;;;;;5028658;28;45456;-69
2022/06/19 05:13:52;;;;;;;;;14.67;12.00;;;;;;;;5039899;28;46530;-69
2022/06/19 05:16:19;;;;;;;;;12.67;10.33;;;;;;;;5036277;28;45539;-68
2022/06/19 05:18:44;;;;;;;;;10.00;10.00;;;;;;;;5042231;28;45313;-68
2022/06/19 05:21:10;;;;;;;;;14.33;7.33;;;;;;;;5035414;28;45329;-69
2022/06/19 05:23:36;;;;;;;;;11.00;8.67;;;;;;;;5046020;28;45431;-69
2022/06/19 05:26:19;;;;;;;;;7.33;7.33;;;;;;;;5038831;28;46519;-69
2022/06/19 05:28:45;;;;;;;;;9.67;6.33;;;;;;;;5035945;28;45313;-69
2022/06/19 05:31:10;;;;;;;;;7.33;7.00;;;;;;;;5051360;28;45475;-69
2022/06/19 05:33:35;;;;;;;;;9.00;9.00;;;;;;;;5055224;28;45449;-69
2022/06/19 05:36:03;;;;;;;;;9.00;7.33;;;;;;;;5052124;28;46523;-68
2022/06/19 05:38:28;;;;;;;;;11.67;7.00;;;;;;;;5029657;28;46128;-68
2022/06/19 05:40:54;;;;;;;;;7.33;6.33;;;;;;;;5047119;28;45475;-69
2022/06/19 05:43:20;;;;;;;;;7.67;7.33;;;;;;;;5045011;28;45402;-68
2022/06/19 05:45:53;;;;;;;;;10.00;7.00;;;;;;;;5050700;28;45496;-68
2022/06/19 05:48:18;;;;;;;;;8.00;6.33;;;;;;;;5058202;28;45165;-68
2022/06/19 05:50:43;;;;;;;;;5.33;5.33;;;;;;;;5056942;28;45254;-68
2022/06/19 05:53:08;;;;;;;;;9.67;6.67;;;;;;;;5052507;28;45612;-68
2022/06/19 05:55:34;;;;;;;;;10.67;6.67;;;;;;;;5038045;28;46909;-68
2022/06/19 05:57:59;;;;;;;;;7.33;5.33;;;;;;;;5045482;28;45400;-68
2022/06/19 06:00:24;;;;;;;;;6.00;5.00;;;;;;;;5055797;28;47512;-69
2022/06/19 06:02:49;;;;;;;;;9.00;5.67;;;;;;;;5049633;28;45357;-68
2022/06/19 06:05:14;;;;;;;;;5.00;5.00;;;;;;;;5057193;28;46626;-68
2022/06/19 06:07:40;;;;;;;;;5.33;4.00;;;;;;;;5032301;28;45199;-68
2022/06/19 06:10:05;;;;;;;;;5.67;5.67;;;;;;;;5040400;28;45254;-67
2022/06/19 06:12:31;;;;;;;;;5.33;4.33;;;;;;;;5049943;28;45573;-68
2022/06/19 06:14:56;;;;;;;;;7.67;5.00;;;;;;;;5029707;28;46894;-68
2022/06/19 06:17:23;;;;;;;;;4.67;4.67;;;;;;;;5053424;28;45222;-67
2022/06/19 06:19:48;;;;;;;;;4.00;4.00;;;;;;;;5058735;28;45739;-68
2022/06/19 06:22:14;;;;;;;;;5.00;5.00;;;;;;;;5051657;28;45392;-68
2022/06/19 06:24:40;;;;;;;;;7.00;5.33;;;;;;;;5050218;28;45328;-68
2022/06/19 06:27:05;;;;;;;;;7.67;5.00;;;;;;;;5051884;28;45421;-68
2022/06/19 06:29:30;;;;;;;;;6.67;5.00;;;;;;;;5049352;28;45319;-68
2022/06/19 06:31:58;;;;;;;;;10.67;7.00;;;;;;;;5048938;28;45455;-68
2022/06/19 06:34:23;;;;;;;;;4.00;4.00;;;;;;;;5058301;28;45500;-68
2022/06/19 06:36:48;;;;;;;;;4.00;4.00;;;;;;;;5043058;28;45287;-69
2022/06/19 06:39:13;;;;;;;;;7.00;4.00;;;;;;;;5054243;28;45349;-68
2022/06/19 06:41:38;;;;;;;;;10.00;5.67;;;;;;;;5046474;28;45487;-68
2022/06/19 06:44:04;;;;;;;;;5.00;3.67;;;;;;;;5054125;28;45410;-67
2022/06/19 06:46:29;;;;;;;;;7.00;6.00;;;;;;;;5050869;28;45367;-67
2022/06/19 06:48:55;;;;;;;;;6.00;3.67;;;;;;;;5055474;28;45349;-68
2022/06/19 06:51:22;;;;;;;;;8.00;5.67;;;;;;;;5046962;28;45798;-67
2022/06/19 06:53:48;;;;;;;;;8.33;6.00;;;;;;;;5037365;28;48008;-68
2022/06/19 06:56:13;;;;;;;;;7.33;5.00;;;;;;;;5044778;28;45403;-68
2022/06/19 06:58:39;;;;;;;;;8.33;4.67;;;;;;;;5044802;28;45365;-68
2022/06/19 07:01:15;;;;;;;;;5.00;4.33;;;;;;;;5034606;28;45285;-68
2022/06/19 07:03:41;;;;;;;;;4.67;3.67;;;;;;;;5034689;28;48045;-68
2022/06/19 07:06:06;;;;;;;;;7.00;4.67;;;;;;;;5032920;28;45890;-68
2022/06/19 07:08:32;;;;;;;;;6.67;4.00;;;;;;;;5050763;28;45340;-68
2022/06/19 07:10:57;;;;;;;;;4.33;3.00;;;;;;;;5027860;28;45649;-69
2022/06/19 07:13:22;;;;;;;;;6.67;4.00;;;;;;;;5056545;28;46285;-69
2022/06/19 07:15:49;;;;;;;;;7.33;4.00;;;;;;;;5038919;28;45329;-69
2022/06/19 07:18:14;;;;;;;;;5.00;3.67;;;;;;;;5048781;28;45301;-69
2022/06/19 07:20:39;;;;;;;;;6.00;5.67;;;;;;;;5038860;28;45368;-69
2022/06/19 07:23:05;;;;;;;;;7.00;4.67;;;;;;;;5042092;28;46436;-68
2022/06/19 07:25:30;;;;;;;;;9.00;4.67;;;;;;;;5038317;28;45268;-68
2022/06/19 07:27:55;;;;;;;;;6.00;4.00;;;;;;;;5057604;28;45242;-68
2022/06/19 07:30:22;;;;;;;;;4.00;4.00;;;;;;;;5050506;28;45526;-68
2022/06/19 07:32:48;;;;;;;;;8.67;5.33;;;;;;;;5057162;28;45988;-68
2022/06/19 07:35:13;;;;;;;;;5.67;4.33;;;;;;;;5047434;28;45366;-68
2022/06/19 07:37:38;;;;;;;;;4.67;4.67;;;;;;;;5056582;28;45425;-68
2022/06/19 07:40:04;;;;;;;;;3.00;3.00;;;;;;;;5046694;28;45373;-69
2022/06/19 07:42:29;;;;;;;;;7.33;4.00;;;;;;;;5055116;28;45469;-69
2022/06/19 07:44:55;;;;;;;;;5.67;4.33;;;;;;;;5044942;28;45331;-68
2022/06/19 07:50:09;;;;;;;;;5.00;4.00;;;;;;;;5058253;28;45316;-69
2022/06/19 07:52:35;;;;;;;;;5.00;4.00;;;;;;;;5043012;28;46019;-68
2022/06/19 07:55:01;;;;;;;;;4.67;4.67;;;;;;;;5039802;28;45657;-68
2022/06/19 07:57:27;;;;;;;;;7.33;5.00;;;;;;;;5053371;28;45426;-68
2022/06/19 07:59:52;;;;;;;;;5.67;5.67;;;;;;;;5054641;28;45499;-68
2022/06/19 08:02:17;;;;;;;;;11.67;5.67;;;;;;;;5056817;28;46207;-68
2022/06/19 08:04:42;;;;;;;;;5.00;5.00;;;;;;;;5047472;28;45292;-68
2022/06/19 08:07:10;;;;;;;;;8.67;5.00;;;;;;;;5054188;28;45266;-68
2022/06/19 08:09:35;;;;;;;;;7.67;4.00;;;;;;;;5035770;28;46859;-68
2022/06/19 08:12:01;;;;;;;;;6.00;5.33;;;;;;;;5032845;28;47316;-69
2022/06/19 08:14:26;;;;;;;;;4.67;4.67;;;;;;;;5051985;28;45459;-71
2022/06/19 08:16:51;;;;;;;;;10.00;6.00;;;;;;;;5032714;28;45479;-71
2022/06/19 08:19:16;;;;;;;;;11.33;8.00;;;;;;;;5057454;28;45621;-71
2022/06/19 08:21:41;;;;;;;;;9.33;7.00;;;;;;;;5053218;28;45527;-71
2022/06/19 08:24:07;;;;;;;;;6.67;6.00;;;;;;;;5049826;28;45255;-71
2022/06/19 08:26:32;;;;;;;;;6.00;5.33;;;;;;;;5051810;28;46245;-71
2022/06/19 08:29:03;;;;;;;;;7.00;6.00;;;;;;;;5053675;28;45329;-71
2022/06/19 08:31:29;;;;;;;;;8.67;7.67;;;;;;;;5047134;28;45539;-71
2022/06/19 08:33:55;;;;;;;;;8.00;7.00;;;;;;;;5053652;28;45461;-71
2022/06/19 08:36:20;;;;;;;;;7.33;6.00;;;;;;;;5050480;28;45250;-71
2022/06/19 08:38:51;;;;;;;;;10.33;7.33;;;;;;;;5035794;28;46551;-71
2022/06/19 08:41:25;;;;;;;;;10.00;8.00;;;;;;;;5035103;28;48361;-70
2022/06/19 08:44:09;;;;;;;;;8.33;6.00;;;;;;;;5054971;28;45305;-71
2022/06/19 08:46:43;;;;;;;;;10.00;9.00;;;;;;;;5050259;28;45388;-70
2022/06/19 08:49:35;;;;;;;;;11.67;8.67;;;;;;;;5054654;28;45319;-71
2022/06/19 08:52:00;;;;;;;;;10.67;10.00;;;;;;;;5052564;28;45536;-71
2022/06/19 08:54:28;;;;;;;;;10.75;7.00;;;;;;;;5055184;28;45446;-72
2022/06/19 08:56:54;;;;;;;;;11.67;10.00;;;;;;;;5045628;28;45415;-70
2022/06/19 08:59:25;;;;;;;;;8.33;8.33;;;;;;;;5056946;28;45196;-71
2022/06/19 09:02:03;;;;;;;;;10.67;9.00;;;;;;;;5050867;28;46251;-72
2022/06/19 09:07:33;;;;;;;;;10.00;9.00;;;;;;;;5047960;28;45335;-71
2022/06/19 09:10:04;;;;;;;;;10.67;9.00;;;;;;;;5039850;28;45281;-71
2022/06/19 09:12:42;;;;;;;;;13.00;10.33;;;;;;;;5036529;28;46768;-71
2022/06/19 09:15:08;;;;;;;;;14.00;12.00;;;;;;;;5053907;28;45269;-71
2022/06/19 09:17:39;;;;;;;;;11.67;11.00;;;;;;;;5043075;28;45366;-71
2022/06/19 09:20:08;;;;;;;;;10.67;10.00;;;;;;;;5053018;28;45446;-71
2022/06/19 09:22:46;;;;;;;;;12.00;8.67;;;;;;;;5043566;28;45368;-71
2022/06/19 09:25:17;;;;;;;;;9.00;8.00;;;;;;;;5052186;28;45229;-70
2022/06/19 09:28:02;;;;;;;;;10.33;9.00;;;;;;;;5053994;28;45382;-70
2022/06/19 09:30:34;;;;;;;;;13.33;10.67;;;;;;;;5005915;28;45914;-70
2022/06/19 09:33:02;;;;;;;;;14.00;12.67;;;;;;;;5055124;28;45371;-70
2022/06/19 09:35:33;;;;;;;;;10.33;9.67;;;;;;;;5041719;28;45345;-70
2022/06/19 09:38:05;;;;;;;;;11.00;10.00;;;;;;;;5048930;28;45474;-70
2022/06/19 09:40:33;;;;;;;;;9.33;8.00;;;;;;;;5049148;28;45366;-69
2022/06/19 09:42:58;;;;;;;;;15.67;11.00;;;;;;;;5050142;28;45736;-70
2022/06/19 09:45:23;;;;;;;;;10.00;8.00;;;;;;;;5057711;28;45325;-69
2022/06/19 09:47:54;;;;;;;;;11.75;11.00;;;;;;;;5048961;28;45332;-70
2022/06/19 09:50:22;;;;;;;;;11.00;10.67;;;;;;;;5051280;28;45265;-70
2022/06/19 09:52:53;;;;;;;;;12.67;10.00;;;;;;;;5053502;28;46068;-70
2022/06/19 09:55:24;;;;;;;;;11.67;10.33;;;;;;;;5040599;28;45443;-69
2022/06/19 09:57:55;;;;;;;;;16.67;12.00;;;;;;;;5036779;28;45341;-69
2022/06/19 10:00:24;;;;;;;;;14.00;12.00;;;;;;;;5048780;28;45301;-69
2022/06/19 10:02:49;;;;;;;;;11.67;10.00;;;;;;;;5048612;28;45465;-69
2022/06/19 10:05:17;;;;;;;;;19.33;12.33;;;;;;;;5058588;28;45342;-69
2022/06/19 10:07:53;;;;;;;;;17.67;14.00;;;;;;;;5031271;28;45380;-69
2022/06/19 10:10:26;;;;;;;;;17.67;12.00;;;;;;;;5053548;28;45317;-69
2022/06/19 10:12:53;;;;;;;;;16.00;11.33;;;;;;;;5047282;28;45498;-69
2022/06/19 10:15:38;;;;;;;;;17.00;15.67;;;;;;;;5039640;28;45444;-69
2022/06/19 10:18:09;;;;;;;;;24.00;16.67;;;;;;;;5035319;28;45258;-69
2022/06/19 10:20:46;;;;;;;;;14.33;13.67;;;;;;;;5048099;28;45517;-69
2022/06/19 10:23:20;;;;;;;;;15.33;14.00;;;;;;;;5031453;28;47303;-69
2022/06/19 10:25:45;;;;;;;;;18.00;16.00;;;;;;;;5045241;28;46111;-69
2022/06/19 10:28:19;;;;;;;;;11.00;11.00;;;;;;;;5048597;28;45272;-69
2022/06/19 10:30:54;;;;;;;;;16.67;13.00;;;;;;;;5042740;28;45550;-69
2022/06/19 10:33:22;;;;;;;;;18.33;15.67;;;;;;;;5047922;28;45422;-69
2022/06/19 10:36:03;;;;;;;;;16.33;14.00;;;;;;;;5041287;28;45629;-69
2022/06/19 10:38:28;;;;;;;;;17.00;13.00;;;;;;;;5049763;28;45315;-70
2022/06/19 10:40:56;;;;;;;;;16.33;14.00;;;;;;;;5053828;28;45444;-69
2022/06/19 10:43:30;;;;;;;;;36.33;31.67;;;;;;;;5048244;28;46400;-69
2022/06/19 10:45:56;;;;;;;;;16.33;15.00;;;;;;;;5044727;28;45384;-68
2022/06/19 10:48:31;;;;;;;;;27.67;26.33;;;;;;;;5054963;28;45344;-69
2022/06/19 10:51:06;;;;;;;;;23.33;21.33;;;;;;;;5051373;28;45439;-69
2022/06/19 10:53:47;;;;;;;;;22.00;21.67;;;;;;;;5035899;28;47855;-69
2022/06/19 10:56:13;;;;;;;;;17.67;16.00;;;;;;;;5038729;28;45343;-69
2022/06/19 10:58:38;;;;;;;;;19.67;14.67;;;;;;;;5048514;28;45504;-70
2022/06/19 11:01:05;;;;;;;;;14.00;13.00;;;;;;;;5056042;28;45377;-70
2022/06/19 11:06:17;;;;;;;;;13.50;13.00;;;;;;;;5044387;28;45530;-69
2022/06/19 11:08:44;;;;;;;;;13.50;12.25;;;;;;;;5042338;28;45414;-70
2022/06/19 11:11:14;;;;;;;;;11.50;11.25;;;;;;;;5038057;28;45738;-69
2022/06/19 11:13:58;;;;;;;;;12.00;12.00;;;;;;;;5039596;28;47981;-70
2022/06/19 11:16:24;;;;;;;;;13.00;12.00;;;;;;;;5057726;28;45451;-69
2022/06/19 11:18:50;;;;;;;;;16.25;13.00;;;;;;;;5054928;28;45719;-69
2022/06/19 11:21:18;;;;;;;;;13.75;13.75;;;;;;;;5036948;28;46745;-71
2022/06/19 11:23:47;;;;;;;;;15.75;14.00;;;;;;;;5056112;28;45363;-69
2022/06/19 11:26:14;;;;;;;;;16.75;15.00;;;;;;;;5041519;28;45917;-69
2022/06/19 11:28:48;;;;;;;;;10.50;10.50;;;;;;;;5055748;28;45407;-68
2022/06/19 11:31:17;;;;;;;;;11.50;11.50;;;;;;;;5048484;28;45384;-69
2022/06/19 11:33:42;;;;;;;;;12.25;9.25;;;;;;;;5045988;28;46403;-69
2022/06/19 11:36:08;;;;;;;;;11.75;10.00;;;;;;;;5044936;28;45288;-69
2022/06/19 11:38:40;;;;;;;;;12.75;11.00;;;;;;;;5050813;28;45267;-69
2022/06/19 11:41:18;;;;;;;;;15.25;10.75;;;;;;;;5032744;28;45619;-70
2022/06/19 11:43:43;;;;;;;;;11.25;9.25;;;;;;;;5055789;28;45325;-70
2022/06/19 11:46:26;;;;;;;;;8.00;7.00;;;;;;;;5055944;28;45459;-70
2022/06/19 11:48:51;;;;;;;;;10.75;8.00;;;;;;;;5055593;28;45463;-70
2022/06/19 11:51:20;;;;;;;;;8.25;8.25;;;;;;;;5035671;28;45906;-70
2022/06/19 11:53:49;;;;;;;;;8.75;8.75;;;;;;;;5051463;28;45542;-69
2022/06/19 11:56:15;;;;;;;;;13.00;11.00;;;;;;;;5034557;28;45380;-69
2022/06/19 11:58:42;;;;;;;;;13.75;10.75;;;;;;;;5053661;28;45367;-69
2022/06/19 12:01:13;;;;;;;;;9.75;6.50;;;;;;;;5036876;28;47929;-68
2022/06/19 12:03:47;;;;;;;;;8.75;6.00;;;;;;;;5040540;28;47525;-69
2022/06/19 12:06:13;;;;;;;;;8.00;8.00;;;;;;;;5046932;28;45190;-69
2022/06/19 12:08:51;;;;;;;;;9.25;9.00;;;;;;;;5059400;28;45379;-68
2022/06/19 12:11:32;;;;;;;;;8.25;8.00;;;;;;;;5055330;28;45525;-70
2022/06/19 12:13:57;;;;;;;;;7.75;6.50;;;;;;;;5053313;28;46480;-69
2022/06/19 12:16:23;;;;;;;;;9.00;7.00;;;;;;;;5038024;28;45375;-71
2022/06/19 12:18:49;;;;;;;;;11.50;7.25;;;;;;;;5049455;28;45361;-70
2022/06/19 12:21:20;;;;;;;;;7.00;6.00;;;;;;;;5051690;28;45341;-69
2022/06/19 12:23:58;;;;;;;;;9.50;7.00;;;;;;;;5050148;28;45416;-71
2022/06/19 12:26:27;;;;;;;;;8.40;6.60;;;;;;;;5042408;28;45162;-70
2022/06/19 12:29:00;;;;;;;;;10.00;7.75;;;;;;;;5045734;28;45442;-70
2022/06/19 12:31:26;;;;;;;;;9.00;9.00;;;;;;;;5052000;28;45416;-70
2022/06/19 12:33:58;;;;;;;;;14.00;13.00;;;;;;;;5046379;28;45430;-70
2022/06/19 12:36:27;;;;;;;;;5.00;5.00;;;;;;;;5031674;28;45527;-69
2022/06/19 12:38:52;;;;;;;;;7.00;6.00;;;;;;;;5045700;28;45343;-70
2022/06/19 12:41:38;;;;;;;;;8.75;6.00;;;;;;;;5052251;28;45517;-70
2022/06/19 12:44:07;;;;;;;;;10.20;6.80;;;;;;;;5051533;28;46851;-69
2022/06/19 12:47:03;;;;;;;;;3.60;3.40;;;;;;;;5039121;28;45413;-69
2022/06/19 12:49:34;;;;;;;;;6.75;6.75;;;;;;;;5055876;28;45228;-70
2022/06/19 12:52:08;;;;;;;;;5.25;5.25;;;;;;;;5050413;28;45463;-70
2022/06/19 12:54:36;;;;;;;;;9.50;7.25;;;;;;;;5044045;28;45667;-69
2022/06/19 12:57:20;;;;;;;;;9.00;7.25;;;;;;;;5052593;28;45391;-70
2022/06/19 12:59:58;;;;;;;;;8.25;8.00;;;;;;;;5046546;28;45232;-70
2022/06/19 13:02:27;;;;;;;;;8.00;8.00;;;;;;;;5035572;28;46038;-69
2022/06/19 13:05:11;;;;;;;;;7.25;6.00;;;;;;;;5041114;28;46533;-70
2022/06/19 13:07:42;;;;;;;;;20.00;18.50;;;;;;;;5047875;28;45404;-70
2022/06/19 13:10:13;;;;;;;;;18.00;16.00;;;;;;;;5055464;28;45273;-70
2022/06/19 13:13:05;;;;;;;;;9.25;8.50;;;;;;;;5049103;28;45535;-69
2022/06/19 13:15:49;;;;;;;;;19.25;17.25;;;;;;;;5034407;28;47355;-70
2022/06/19 13:18:33;;;;;;;;;14.75;12.75;;;;;;;;5034263;28;45401;-70
2022/06/19 13:20:59;;;;;;;;;27.67;26.33;;;;;;;;5048541;28;45513;-70
2022/06/19 13:23:33;;;;;;;;;21.00;19.00;;;;;;;;5054721;28;45451;-70
2022/06/19 13:26:04;;;;;;;;;19.67;18.00;;;;;;;;5053890;28;45504;-70
2022/06/19 13:28:34;;;;;;;;;19.75;17.75;;;;;;;;5030798;28;45678;-70
2022/06/19 13:31:18;;;;;;;;;31.67;26.67;;;;;;;;5042968;28;45340;-71
2022/06/19 13:34:02;;;;;;;;;33.67;30.00;;;;;;;;5028158;28;45460;-70
2022/06/19 13:36:37;;;;;;;;;20.67;20.67;;;;;;;;5047475;28;45328;-70
2022/06/19 13:39:09;;;;;;;;;12.00;12.00;;;;;;;;5058929;28;45245;-70
2022/06/19 13:41:34;;;;;;;;;16.25;14.25;;;;;;;;5053191;28;45524;-70
2022/06/19 13:44:11;;;;;;;;;13.75;12.50;;;;;;;;5055196;28;45541;-70
2022/06/19 13:46:45;;;;;;;;;11.50;10.25;;;;;;;;5053775;28;45370;-69
2022/06/19 13:49:25;;;;;;;;;18.25;15.50;;;;;;;;5055872;28;45300;-69
2022/06/19 13:52:00;;;;;;;;;15.00;11.00;;;;;;;;5049298;28;45485;-69
2022/06/19 13:54:34;;;;;;;;;19.00;17.75;;;;;;;;5048776;28;45309;-69
2022/06/19 13:57:03;;;;;;;;;20.50;18.25;;;;;;;;5037498;28;47513;-70
2022/06/19 13:59:40;;;;;;;;;15.00;11.75;;;;;;;;5051833;28;45332;-70
2022/06/19 14:02:11;;;;;;;;;12.25;9.00;;;;;;;;5054751;28;45392;-70
2022/06/19 14:04:46;;;;;;;;;12.00;11.00;;;;;;;;5051534;28;45327;-70
2022/06/19 14:07:12;;;;;;;;;13.75;11.75;;;;;;;;5046118;28;46499;-70
2022/06/19 14:09:40;;;;;;;;;16.25;11.25;;;;;;;;5038830;28;45261;-70
2022/06/19 14:12:07;;;;;;;;;17.75;13.75;;;;;;;;5035575;28;45303;-70
2022/06/19 14:14:37;;;;;;;;;11.50;9.75;;;;;;;;5054151;28;45442;-70
2022/06/19 14:17:21;;;;;;;;;13.75;12.00;;;;;;;;5047859;28;45639;-70
2022/06/19 14:19:55;;;;;;;;;22.00;21.50;;;;;;;;5047961;28;45353;-70
2022/06/19 14:22:20;;;;;;;;;19.00;14.75;;;;;;;;5034044;28;45497;-70
2022/06/19 14:24:45;;;;;;;;;11.00;10.50;;;;;;;;5041430;28;45374;-70
2022/06/19 14:27:11;;;;;;;;;16.25;13.50;;;;;;;;5044531;28;45514;-69
2022/06/19 14:29:42;;;;;;;;;13.25;10.00;;;;;;;;5038530;28;45724;-70
2022/06/19 14:32:18;;;;;;;;;11.60;10.60;;;;;;;;5051653;28;45388;-69
2022/06/19 14:34:45;;;;;;;;;11.75;9.50;;;;;;;;5052809;28;45305;-70
2022/06/19 14:37:25;;;;;;;;;11.75;11.75;;;;;;;;5050079;28;46215;-69
2022/06/19 14:39:51;;;;;;;;;13.00;11.00;;;;;;;;5051408;28;45240;-70
2022/06/19 14:42:16;;;;;;;;;12.50;11.50;;;;;;;;5050420;28;45422;-70